Time;durP1;ratioP1;P1;durP2;ratioP2;P2;SDS_P1;SDS_P2;PMS_P1;PMS_P2;Temp;Humidity;BMP_temperature;BMP_pressure;BME280_temperature;BME280_humidity;BME280_pressure;Samples;Min_cycle;Max_cycle;Signal;HPM_P1;HPM_P2
2022/04/08 00:02:03;;;;;;;9.93;6.28;;;10.90;98.00;;;;;;5016662;28;20121;-72
2022/04/08 00:04:30;;;;;;;5.65;5.05;;;10.90;98.50;;;;;;5011288;28;20037;-72
2022/04/08 00:06:56;;;;;;;7.22;5.40;;;11.00;98.30;;;;;;5013307;28;20072;-72
2022/04/08 00:09:22;;;;;;;7.63;4.93;;;11.00;98.10;;;;;;5017226;28;20072;-72
2022/04/08 00:11:48;;;;;;;7.35;4.68;;;11.20;97.90;;;;;;5018163;28;20120;-72
2022/04/08 00:14:14;;;;;;;7.05;4.45;;;11.20;98.00;;;;;;5007281;28;20041;-72
2022/04/08 00:16:39;;;;;;;8.85;5.07;;;11.30;98.20;;;;;;5014293;28;20068;-73
2022/04/08 00:19:05;;;;;;;7.57;4.95;;;11.20;98.40;;;;;;5015993;28;20112;-72
2022/04/08 00:21:31;;;;;;;4.20;3.65;;;11.10;98.30;;;;;;5013957;28;20029;-72
2022/04/08 00:23:57;;;;;;;4.00;3.30;;;11.20;98.10;;;;;;5017650;28;20022;-72
2022/04/08 00:26:22;;;;;;;3.75;3.38;;;11.30;97.80;;;;;;5013473;28;20053;-72
2022/04/08 00:28:48;;;;;;;3.17;2.88;;;11.50;97.50;;;;;;5014226;28;20025;-73
2022/04/08 00:31:13;;;;;;;4.72;3.05;;;11.70;97.00;;;;;;5012326;28;20100;-73
2022/04/08 00:33:39;;;;;;;2.65;2.40;;;11.80;96.70;;;;;;5013167;28;20497;-73
2022/04/08 00:36:05;;;;;;;2.30;2.10;;;12.00;96.30;;;;;;5016864;28;20044;-73
2022/04/08 00:38:32;;;;;;;5.07;2.38;;;12.10;96.00;;;;;;5011005;28;20033;-73
2022/04/08 00:40:58;;;;;;;6.78;2.80;;;12.10;95.60;;;;;;5021557;28;20473;-73
2022/04/08 00:43:38;;;;;;;3.05;2.20;;;12.20;95.60;;;;;;5018754;28;20095;-74
2022/04/08 00:46:06;;;;;;;5.93;1.70;;;12.10;95.50;;;;;;5017398;28;20048;-74
2022/04/08 00:48:32;;;;;;;6.57;2.22;;;12.00;95.40;;;;;;5008719;28;20030;-74
2022/04/08 00:50:59;;;;;;;3.30;1.65;;;12.10;95.40;;;;;;5014999;28;20628;-74
2022/04/08 00:53:25;;;;;;;4.53;1.58;;;12.00;95.30;;;;;;5011774;28;20040;-74
2022/04/08 00:55:52;;;;;;;2.47;1.52;;;12.00;95.20;;;;;;5014563;28;20029;-74
2022/04/08 00:58:17;;;;;;;4.68;1.50;;;11.90;95.20;;;;;;5018703;28;20124;-73
2022/04/08 01:00:43;;;;;;;3.05;1.48;;;11.90;95.10;;;;;;5016634;28;20112;-74
2022/04/08 01:03:09;;;;;;;3.08;1.65;;;11.90;95.10;;;;;;5014999;28;20030;-74
2022/04/08 01:05:35;;;;;;;3.67;1.80;;;11.80;95.20;;;;;;5010817;28;20046;-74
2022/04/08 01:08:02;;;;;;;1.95;1.50;;;11.80;95.10;;;;;;5021371;28;20406;-73
2022/04/08 01:10:28;;;;;;;2.25;1.42;;;11.70;95.20;;;;;;5009792;28;20160;-73
2022/04/08 01:12:54;;;;;;;2.55;1.65;;;11.60;95.50;;;;;;5014254;28;20117;-73
2022/04/08 01:15:22;;;;;;;3.83;1.80;;;11.40;95.50;;;;;;5013733;28;20438;-73
2022/04/08 01:17:49;;;;;;;2.08;1.30;;;11.50;95.50;;;;;;5014893;28;20048;-74
2022/04/08 01:20:15;;;;;;;1.52;1.27;;;11.60;95.30;;;;;;5014008;28;20061;-73
2022/04/08 01:22:41;;;;;;;2.20;1.25;;;11.80;94.90;;;;;;5013067;28;20081;-74
2022/04/08 01:25:09;;;;;;;2.13;1.35;;;12.00;94.00;;;;;;5011437;28;20026;-73
2022/04/08 01:27:35;;;;;;;2.72;1.20;;;12.30;93.30;;;;;;5014442;28;20037;-73
2022/04/08 01:30:01;;;;;;;1.52;1.10;;;12.50;93.10;;;;;;5016596;28;20029;-74
2022/04/08 01:32:27;;;;;;;3.33;1.13;;;12.70;92.20;;;;;;5013901;28;20083;-74
2022/04/08 01:34:53;;;;;;;0.73;0.73;;;12.90;91.50;;;;;;5007999;28;20033;-74
2022/04/08 01:37:22;;;;;;;2.78;0.77;;;13.20;90.90;;;;;;5017860;28;20037;-73
2022/04/08 01:39:47;;;;;;;1.45;0.70;;;13.50;90.50;;;;;;5016906;28;20103;-73
2022/04/08 01:42:13;;;;;;;1.30;0.80;;;13.70;90.40;;;;;;5015751;28;20034;-73
2022/04/08 01:44:40;;;;;;;17.48;0.98;;;13.70;90.00;;;;;;5013160;28;20112;-73
2022/04/08 01:47:07;;;;;;;3.95;0.50;;;13.80;90.20;;;;;;5012126;28;20037;-73
2022/04/08 01:49:33;;;;;;;4.07;0.47;;;13.90;89.60;;;;;;5011608;28;20037;-73
2022/04/08 01:51:59;;;;;;;1.55;0.38;;;13.90;89.30;;;;;;5044434;28;20033;-73
2022/04/08 01:54:25;;;;;;;3.70;0.30;;;14.00;89.30;;;;;;5011233;28;20034;-74
2022/04/08 01:56:50;;;;;;;0.60;0.22;;;14.00;88.40;;;;;;5013924;28;20407;-74
2022/04/08 01:59:16;;;;;;;0.70;0.50;;;14.00;89.10;;;;;;5017211;28;20128;-73
2022/04/08 02:01:42;;;;;;;0.93;0.68;;;14.00;88.20;;;;;;5012500;28;20029;-73
2022/04/08 02:04:08;;;;;;;0.55;0.40;;;14.00;88.80;;;;;;5009323;28;20434;-73
2022/04/08 02:06:35;;;;;;;2.42;0.60;;;14.00;89.20;;;;;;5017235;28;20060;-73
2022/04/08 02:09:01;;;;;;;0.65;0.40;;;14.00;90.00;;;;;;5010839;28;20021;-73
2022/04/08 02:11:26;;;;;;;0.20;0.20;;;13.80;91.80;;;;;;5007048;28;20036;-74
2022/04/08 02:13:52;;;;;;;0.32;0.30;;;13.70;92.50;;;;;;5038969;28;20038;-73
2022/04/08 02:16:18;;;;;;;0.93;0.47;;;13.50;93.60;;;;;;5008050;28;20037;-73
2022/04/08 02:18:44;;;;;;;1.05;0.40;;;13.30;94.90;;;;;;5005766;28;20144;-73
2022/04/08 02:21:10;;;;;;;0.70;0.30;;;13.00;95.20;;;;;;5013671;28;20116;-74
2022/04/08 02:23:39;;;;;;;0.52;0.32;;;12.90;96.00;;;;;;5004552;28;20056;-73
2022/04/08 02:26:10;;;;;;;0.35;0.35;;;12.80;97.20;;;;;;5010256;28;20128;-73
2022/04/08 02:28:36;;;;;;;1.45;0.30;;;12.60;97.60;;;;;;5009221;28;20049;-74
2022/04/08 02:31:03;;;;;;;9.50;0.40;;;12.50;98.50;;;;;;5009285;28;20040;-73
2022/04/08 02:33:29;;;;;;;3.45;0.32;;;12.40;97.70;;;;;;5008789;28;20044;-73
2022/04/08 02:35:55;;;;;;;0.45;0.40;;;12.40;97.90;;;;;;5004677;28;20041;-74
2022/04/08 02:38:20;;;;;;;1.48;0.30;;;12.40;98.50;;;;;;5005374;28;20056;-74
2022/04/08 02:40:46;;;;;;;0.30;0.30;;;12.40;98.30;;;;;;5007512;28;20037;-74
2022/04/08 02:43:11;;;;;;;0.20;0.13;;;12.50;97.80;;;;;;5005278;28;20055;-74
2022/04/08 02:45:37;;;;;;;0.35;0.30;;;12.50;97.80;;;;;;5006940;28;20033;-75
2022/04/08 02:48:03;;;;;;;0.55;0.30;;;12.50;97.40;;;;;;5010498;28;21212;-75
2022/04/08 02:50:29;;;;;;;0.10;0.10;;;12.60;97.50;;;;;;5006557;28;20056;-75
2022/04/08 02:52:55;;;;;;;0.20;0.20;;;12.60;96.80;;;;;;5005835;28;20025;-74
2022/04/08 02:55:20;;;;;;;1.15;0.20;;;12.70;97.10;;;;;;5003862;28;20418;-75
2022/04/08 02:57:47;;;;;;;1.13;0.10;;;12.80;96.70;;;;;;5005604;28;20161;-74
2022/04/08 03:00:17;;;;;;;0.65;0.10;;;12.80;97.00;;;;;;5008628;28;20025;-75
2022/04/08 03:02:47;;;;;;;1.63;0.10;;;12.80;96.60;;;;;;5010311;28;20096;-75
2022/04/08 03:05:14;;;;;;;1.17;0.10;;;12.80;96.90;;;;;;5004280;28;20060;-75
2022/04/08 03:07:41;;;;;;;2.40;0.20;;;12.80;97.30;;;;;;5003787;28;20141;-75
2022/04/08 03:10:09;;;;;;;1.75;0.17;;;12.70;97.70;;;;;;5007958;28;20034;-75
2022/04/08 03:12:35;;;;;;;0.63;0.20;;;12.70;98.50;;;;;;5008469;28;20155;-74
2022/04/08 03:15:01;;;;;;;1.05;0.22;;;12.50;99.10;;;;;;5010385;28;20049;-74
2022/04/08 03:17:27;;;;;;;0.80;0.17;;;12.30;98.30;;;;;;5006194;28;20125;-75
2022/04/08 03:19:53;;;;;;;0.20;0.10;;;12.20;98.60;;;;;;5005949;28;20519;-75
2022/04/08 03:22:20;;;;;;;0.22;0.10;;;12.30;97.80;;;;;;5002242;28;20037;-75
2022/04/08 03:24:49;;;;;;;0.47;0.15;;;12.20;96.60;;;;;;5011681;28;20029;-74
2022/04/08 03:27:16;;;;;;;2.35;0.32;;;12.20;95.10;;;;;;5006980;28;20080;-74
2022/04/08 03:29:41;;;;;;;0.30;0.13;;;12.10;94.90;;;;;;5005562;28;20030;-74
2022/04/08 03:32:08;;;;;;;1.48;0.30;;;12.10;95.90;;;;;;5014425;28;20044;-74
2022/04/08 03:34:34;;;;;;;1.45;0.30;;;12.00;95.80;;;;;;5009257;28;20042;-74
2022/04/08 03:36:59;;;;;;;1.23;0.10;;;11.90;96.20;;;;;;5012660;28;20045;-75
2022/04/08 03:39:25;;;;;;;1.08;0.20;;;11.90;95.80;;;;;;5009790;28;20053;-75
2022/04/08 03:41:51;;;;;;;0.47;0.20;;;11.80;96.10;;;;;;5028961;28;20110;-75
2022/04/08 03:44:17;;;;;;;0.38;0.17;;;11.90;95.00;;;;;;5012236;28;20061;-75
2022/04/08 03:46:44;;;;;;;2.50;0.30;;;11.90;95.00;;;;;;5009561;28;20049;-74
2022/04/08 03:49:16;;;;;;;0.73;0.00;;;12.00;95.00;;;;;;5017208;28;20707;-74
2022/04/08 03:51:43;;;;;;;0.20;0.20;;;12.00;94.70;;;;;;5010437;28;20149;-74
2022/04/08 03:54:09;;;;;;;1.65;0.10;;;12.00;94.20;;;;;;5011416;28;20036;-74
2022/04/08 03:56:35;;;;;;;0.95;0.20;;;12.00;94.80;;;;;;5008215;28;20050;-73
2022/04/08 03:59:00;;;;;;;0.32;0.20;;;12.00;93.70;;;;;;5014161;28;20042;-74
2022/04/08 04:01:26;;;;;;;2.00;0.22;;;12.10;93.60;;;;;;5014845;28;20026;-74
2022/04/08 04:03:52;;;;;;;1.10;0.28;;;12.10;93.30;;;;;;5018631;28;20092;-74
2022/04/08 04:06:18;;;;;;;1.20;0.10;;;12.10;93.10;;;;;;5014101;28;20156;-74
2022/04/08 04:08:44;;;;;;;1.08;0.20;;;12.10;92.70;;;;;;5010334;28;20526;-73
2022/04/08 04:11:14;;;;;;;1.00;0.30;;;12.10;92.10;;;;;;5013871;28;20213;-75
2022/04/08 04:13:41;;;;;;;0.77;0.20;;;12.20;91.00;;;;;;5016262;28;20048;-75
2022/04/08 04:16:06;;;;;;;0.50;0.13;;;12.20;91.10;;;;;;5011408;28;20517;-74
2022/04/08 04:18:32;;;;;;;0.73;0.15;;;12.20;91.30;;;;;;5010772;28;20033;-75
2022/04/08 04:20:58;;;;;;;0.43;0.17;;;12.20;90.70;;;;;;5011874;28;20029;-75
2022/04/08 04:23:23;;;;;;;1.00;0.20;;;12.20;89.70;;;;;;5013914;28;20046;-75
2022/04/08 04:25:49;;;;;;;0.63;0.28;;;12.20;89.70;;;;;;5015436;28;20410;-75
2022/04/08 04:28:15;;;;;;;2.47;0.30;;;12.20;88.40;;;;;;5015163;28;20065;-74
2022/04/08 04:30:41;;;;;;;0.38;0.13;;;12.20;85.10;;;;;;5019085;28;20075;-75
2022/04/08 04:33:07;;;;;;;1.45;0.22;;;12.20;82.20;;;;;;5021343;28;20029;-75
2022/04/08 04:35:34;;;;;;;0.95;0.20;;;12.20;83.00;;;;;;5009269;28;20116;-74
2022/04/08 04:38:00;;;;;;;0.68;0.40;;;12.20;79.50;;;;;;5013301;28;20038;-74
2022/04/08 04:40:26;;;;;;;1.10;0.30;;;12.20;77.70;;;;;;5017895;28;20042;-75
2022/04/08 04:42:51;;;;;;;0.90;0.50;;;12.20;78.60;;;;;;5014914;28;20030;-75
2022/04/08 04:45:18;;;;;;;1.85;0.32;;;12.20;77.50;;;;;;5015189;28;20041;-74
2022/04/08 04:47:44;;;;;;;1.77;0.35;;;12.20;74.30;;;;;;5015982;28;20026;-74
2022/04/08 04:50:10;;;;;;;5.40;1.15;;;12.20;74.40;;;;;;5027038;28;20049;-74
2022/04/08 04:52:36;;;;;;;1.67;0.30;;;12.10;74.60;;;;;;5011980;28;20048;-74
2022/04/08 04:55:03;;;;;;;1.05;0.40;;;12.10;73.90;;;;;;5012194;28;20034;-74
2022/04/08 04:57:29;;;;;;;1.90;0.40;;;12.10;73.30;;;;;;5004971;28;20410;-75
2022/04/08 04:59:54;;;;;;;0.50;0.22;;;12.00;75.40;;;;;;5017720;28;20034;-74
2022/04/08 05:02:20;;;;;;;2.72;0.47;;;12.00;75.30;;;;;;5012519;28;20037;-75
2022/04/08 05:04:45;;;;;;;3.10;0.60;;;11.90;73.60;;;;;;5023011;28;20585;-75
2022/04/08 05:07:11;;;;;;;5.97;0.63;;;11.80;71.20;;;;;;5013173;28;20045;-75
2022/04/08 05:09:40;;;;;;;1.58;0.47;;;11.80;74.10;;;;;;5007498;28;20030;-74
2022/04/08 05:12:07;;;;;;;4.75;0.73;;;11.80;71.30;;;;;;5020688;28;20069;-74
2022/04/08 05:14:33;;;;;;;3.80;0.40;;;11.80;72.10;;;;;;5011252;28;20034;-75
2022/04/08 05:16:59;;;;;;;3.10;0.55;;;11.80;74.00;;;;;;5014792;28;20054;-75
2022/04/08 05:19:25;;;;;;;1.45;0.50;;;11.80;73.90;;;;;;5010429;28;20029;-74
2022/04/08 05:21:52;;;;;;;2.88;0.50;;;11.80;69.90;;;;;;5016340;28;20030;-73
2022/04/08 05:24:21;;;;;;;3.70;0.70;;;11.80;70.50;;;;;;5014657;28;20503;-73
2022/04/08 05:26:47;;;;;;;4.15;0.90;;;11.80;70.50;;;;;;5011846;28;20051;-73
2022/04/08 05:29:13;;;;;;;3.55;0.55;;;11.80;69.90;;;;;;5006932;28;20030;-73
2022/04/08 05:31:39;;;;;;;1.63;0.40;;;11.90;69.30;;;;;;5012290;28;20271;-74
2022/04/08 05:34:05;;;;;;;3.80;0.70;;;11.90;70.10;;;;;;5014164;28;20025;-73
2022/04/08 05:36:31;;;;;;;3.00;0.85;;;11.90;70.30;;;;;;5011384;28;20056;-73
2022/04/08 05:38:57;;;;;;;2.25;0.60;;;11.80;70.40;;;;;;5011813;28;20435;-74
2022/04/08 05:41:23;;;;;;;2.88;0.45;;;11.80;71.20;;;;;;5019649;28;20033;-74
2022/04/08 05:43:48;;;;;;;3.10;0.93;;;11.80;69.70;;;;;;5017469;28;20601;-73
2022/04/08 05:46:15;;;;;;;1.38;0.68;;;11.90;70.10;;;;;;5013409;28;20026;-74
2022/04/08 05:48:41;;;;;;;2.97;0.32;;;11.90;70.40;;;;;;5014724;28;20104;-73
2022/04/08 05:51:07;;;;;;;3.83;0.65;;;11.90;66.50;;;;;;5030148;28;20046;-73
2022/04/08 05:53:32;;;;;;;2.08;0.40;;;11.90;64.80;;;;;;5019119;28;20026;-74
2022/04/08 05:55:59;;;;;;;3.03;0.60;;;11.90;67.30;;;;;;5010206;28;20022;-73
2022/04/08 05:58:25;;;;;;;3.88;0.85;;;12.00;66.10;;;;;;5017613;28;20112;-73
2022/04/08 06:00:51;;;;;;;3.45;0.50;;;12.10;63.60;;;;;;5013164;28;20025;-73
2022/04/08 06:03:17;;;;;;;2.25;0.52;;;12.10;65.80;;;;;;5015278;28;20674;-73
2022/04/08 06:05:43;;;;;;;1.10;0.40;;;12.10;66.90;;;;;;5009814;28;20025;-74
2022/04/08 06:08:09;;;;;;;4.10;0.50;;;12.00;67.90;;;;;;5016509;28;20049;-73
2022/04/08 06:10:36;;;;;;;1.90;0.55;;;12.00;69.30;;;;;;5023783;28;20922;-73
2022/04/08 06:13:02;;;;;;;4.68;0.98;;;12.00;71.60;;;;;;5014870;28;20553;-73
2022/04/08 06:15:28;;;;;;;2.97;0.80;;;11.90;73.30;;;;;;5010892;28;20037;-73
2022/04/08 06:17:55;;;;;;;3.03;0.55;;;12.00;74.30;;;;;;5013828;28;20355;-73
2022/04/08 06:20:22;;;;;;;5.93;1.30;;;12.00;72.30;;;;;;5013613;28;20037;-73
2022/04/08 06:22:48;;;;;;;1.67;0.45;;;12.20;73.70;;;;;;5017530;28;20033;-74
2022/04/08 06:25:20;;;;;;;2.00;0.57;;;12.40;72.80;;;;;;5009531;28;20034;-74
2022/04/08 06:28:04;;;;;;;3.00;0.80;;;12.50;74.10;;;;;;5017383;28;20025;-73
2022/04/08 06:30:32;;;;;;;2.00;0.55;;;12.50;73.10;;;;;;5011949;28;20029;-73
2022/04/08 06:32:58;;;;;;;3.40;0.50;;;12.40;73.50;;;;;;5014506;28;20406;-72
2022/04/08 06:35:23;;;;;;;2.60;0.57;;;12.30;69.80;;;;;;5008084;28;20052;-74
2022/04/08 06:37:49;;;;;;;3.60;0.60;;;12.40;71.20;;;;;;5012846;28;20068;-73
2022/04/08 06:40:15;;;;;;;1.35;0.52;;;12.50;70.70;;;;;;5012572;28;20072;-73
2022/04/08 06:42:41;;;;;;;2.33;0.57;;;12.60;71.40;;;;;;5015213;28;20037;-73
2022/04/08 06:45:08;;;;;;;1.85;0.57;;;12.70;68.20;;;;;;5013556;28;20037;-73
2022/04/08 06:47:44;;;;;;;3.63;0.80;;;12.90;67.50;;;;;;5013237;28;20124;-73
2022/04/08 06:50:09;;;;;;;4.75;0.57;;;12.90;66.20;;;;;;5006419;28;20497;-73
2022/04/08 06:52:35;;;;;;;1.42;0.30;;;12.90;62.40;;;;;;5014931;28;20037;-73
2022/04/08 06:55:01;;;;;;;2.33;0.45;;;12.90;65.70;;;;;;5012272;28;20091;-73
2022/04/08 06:57:26;;;;;;;2.25;0.52;;;12.90;61.50;;;;;;5010294;28;20053;-74
2022/04/08 06:59:52;;;;;;;1.80;0.70;;;12.80;61.60;;;;;;5011756;28;20111;-73
2022/04/08 07:02:17;;;;;;;2.90;0.68;;;12.80;60.40;;;;;;5004009;28;20041;-74
2022/04/08 07:04:43;;;;;;;2.83;0.57;;;12.80;62.70;;;;;;5002442;28;20141;-73
2022/04/08 07:07:09;;;;;;;1.77;0.40;;;12.90;62.10;;;;;;5007428;28;20139;-73
2022/04/08 07:09:34;;;;;;;1.30;0.32;;;13.00;59.00;;;;;;5014171;28;20030;-73
2022/04/08 07:12:01;;;;;;;2.47;1.05;;;13.00;61.80;;;;;;5012510;28;20041;-73
2022/04/08 07:14:27;;;;;;;2.92;0.82;;;13.00;61.80;;;;;;5006948;28;20030;-73
2022/04/08 07:16:54;;;;;;;5.63;1.05;;;13.10;65.50;;;;;;5007887;28;20037;-73
2022/04/08 07:19:19;;;;;;;3.08;0.73;;;13.10;65.10;;;;;;5000493;28;20144;-72
2022/04/08 07:21:45;;;;;;;1.38;0.70;;;13.00;62.70;;;;;;5001925;28;20200;-73
2022/04/08 07:24:11;;;;;;;2.90;0.50;;;12.80;66.50;;;;;;5008290;28;20160;-73
2022/04/08 07:26:36;;;;;;;5.00;0.90;;;12.90;69.20;;;;;;5009152;28;20061;-73
2022/04/08 07:29:02;;;;;;;2.80;0.75;;;13.00;66.20;;;;;;5005482;28;20029;-73
2022/04/08 07:31:28;;;;;;;2.63;0.50;;;13.00;65.10;;;;;;5015041;28;20048;-71
2022/04/08 07:33:54;;;;;;;2.50;0.60;;;13.00;66.40;;;;;;5007145;28;20049;-73
2022/04/08 07:36:19;;;;;;;2.58;0.70;;;13.00;64.40;;;;;;5002998;28;20053;-73
2022/04/08 07:38:45;;;;;;;2.67;0.68;;;12.90;62.80;;;;;;5005552;28;20473;-73
2022/04/08 07:41:10;;;;;;;2.05;0.73;;;12.90;63.00;;;;;;5014217;28;20083;-73
2022/04/08 07:43:36;;;;;;;1.42;0.52;;;12.80;66.20;;;;;;5018621;28;20393;-71
2022/04/08 07:46:02;;;;;;;3.00;0.60;;;12.90;67.60;;;;;;5012124;28;20030;-73
2022/04/08 07:48:31;;;;;;;0.95;0.40;;;12.90;65.70;;;;;;5013087;28;20152;-87
2022/04/08 07:50:57;;;;;;;5.00;0.80;;;12.90;69.80;;;;;;5014557;28;20707;-72
2022/04/08 07:53:23;;;;;;;3.20;0.60;;;12.90;71.40;;;;;;5008105;28;20032;-73
2022/04/08 07:55:48;;;;;;;1.75;0.45;;;12.80;72.20;;;;;;5013596;28;20044;-72
2022/04/08 07:58:14;;;;;;;3.75;0.80;;;12.70;71.50;;;;;;5016641;28;20046;-72
2022/04/08 08:00:40;;;;;;;3.28;0.80;;;12.70;72.20;;;;;;5011238;28;20029;-72
2022/04/08 08:03:05;;;;;;;5.35;0.70;;;12.80;72.20;;;;;;5011272;28;20041;-73
2022/04/08 08:05:32;;;;;;;2.90;0.55;;;12.80;73.80;;;;;;5008736;28;20037;-74
2022/04/08 08:08:00;;;;;;;5.15;0.88;;;12.90;71.10;;;;;;5011496;28;20491;-72
2022/04/08 08:10:30;;;;;;;2.60;0.70;;;12.90;69.80;;;;;;5011901;28;20044;-72
2022/04/08 08:12:58;;;;;;;2.03;0.50;;;12.90;69.50;;;;;;5011796;28;20052;-73
2022/04/08 08:15:24;;;;;;;5.60;1.02;;;12.80;72.00;;;;;;5013734;28;20152;-73
2022/04/08 08:17:51;;;;;;;1.85;0.47;;;12.90;71.70;;;;;;5015755;28;20045;-72
2022/04/08 08:20:19;;;;;;;1.40;0.50;;;13.00;69.80;;;;;;5011099;28;20037;-72
2022/04/08 08:22:45;;;;;;;1.52;0.55;;;12.90;70.30;;;;;;5011803;28;20038;-72
2022/04/08 08:25:12;;;;;;;4.60;1.30;;;13.00;69.30;;;;;;5014535;28;20129;-72
2022/04/08 08:27:48;;;;;;;2.95;0.77;;;13.10;68.80;;;;;;5012551;28;20517;-73
2022/04/08 08:30:15;;;;;;;2.97;0.63;;;13.20;67.00;;;;;;5012277;28;20033;-72
2022/04/08 08:32:44;;;;;;;1.48;0.60;;;13.20;69.10;;;;;;5013227;28;20468;-72
2022/04/08 08:35:15;;;;;;;3.72;0.60;;;13.20;69.70;;;;;;5013798;28;20705;-73
2022/04/08 08:37:41;;;;;;;1.85;0.50;;;13.20;68.00;;;;;;5014593;28;20053;-72
2022/04/08 08:40:08;;;;;;;4.10;0.57;;;13.40;67.20;;;;;;5021532;28;20029;-73
2022/04/08 08:42:38;;;;;;;2.85;0.70;;;13.50;66.00;;;;;;5007521;28;20548;-72
2022/04/08 08:45:10;;;;;;;3.92;0.60;;;13.40;65.90;;;;;;5012930;28;20506;-73
2022/04/08 08:47:36;;;;;;;2.50;0.60;;;13.50;65.30;;;;;;5010656;28;20048;-73
2022/04/08 08:50:02;;;;;;;3.17;0.57;;;13.50;64.10;;;;;;5009723;28;20148;-73
2022/04/08 08:52:29;;;;;;;3.42;0.70;;;13.50;62.50;;;;;;5007614;28;20069;-73
2022/04/08 08:54:55;;;;;;;1.33;0.50;;;13.40;66.20;;;;;;5027178;28;20109;-73
2022/04/08 08:57:22;;;;;;;1.40;0.70;;;13.60;65.70;;;;;;5007788;28;20034;-73
2022/04/08 08:59:51;;;;;;;1.95;0.38;;;13.70;60.00;;;;;;5013688;28;20153;-72
2022/04/08 09:02:18;;;;;;;8.55;0.85;;;13.50;61.40;;;;;;5015771;28;20068;-72
2022/04/08 09:04:44;;;;;;;2.28;0.57;;;13.40;59.50;;;;;;5028928;28;20083;-73
2022/04/08 09:07:29;;;;;;;1.98;0.47;;;13.20;60.60;;;;;;5009161;28;20058;-72
2022/04/08 09:09:58;;;;;;;1.33;0.47;;;13.10;59.30;;;;;;5007785;28;20140;-72
2022/04/08 09:12:26;;;;;;;1.77;0.65;;;12.90;59.80;;;;;;5010863;28;20491;-72
2022/04/08 09:14:54;;;;;;;2.15;0.43;;;12.70;59.30;;;;;;5006273;28;21166;-72
2022/04/08 09:17:21;;;;;;;2.45;0.68;;;12.60;60.30;;;;;;5001081;28;20383;-73
2022/04/08 09:19:58;;;;;;;2.80;0.60;;;12.70;60.90;;;;;;5007451;28;20113;-72
2022/04/08 09:22:32;;;;;;;3.53;0.50;;;12.80;62.40;;;;;;5010861;28;20026;-72
2022/04/08 09:25:11;;;;;;;2.78;0.60;;;13.00;63.30;;;;;;5007894;28;20042;-74
2022/04/08 09:27:38;;;;;;;0.90;0.47;;;13.00;61.10;;;;;;5003623;28;20033;-74
2022/04/08 09:30:05;;;;;;;4.65;0.75;;;12.90;64.00;;;;;;5012630;28;20041;-73
2022/04/08 09:32:30;;;;;;;2.00;0.65;;;12.80;61.70;;;;;;5011032;28;20538;-73
2022/04/08 09:34:57;;;;;;;4.00;0.77;;;12.80;65.40;;;;;;5008614;28;20037;-74
2022/04/08 09:37:23;;;;;;;3.58;0.73;;;13.00;68.00;;;;;;4998954;28;20499;-72
2022/04/08 09:39:59;;;;;;;1.77;0.47;;;13.10;65.40;;;;;;5004537;28;20255;-75
2022/04/08 09:42:50;;;;;;;2.63;0.80;;;13.30;63.20;;;;;;5002152;28;20066;-72
2022/04/08 09:45:27;;;;;;;4.03;0.53;;;13.20;60.40;;;;;;5008619;28;20426;-71
2022/04/08 09:47:53;;;;;;;3.17;0.50;;;13.20;63.00;;;;;;5016241;28;20034;-72
2022/04/08 09:50:18;;;;;;;1.88;0.50;;;13.30;62.70;;;;;;5015883;28;20697;-71
2022/04/08 09:52:45;;;;;;;2.30;0.52;;;13.40;60.70;;;;;;5008854;28;20124;-72
2022/04/08 09:55:11;;;;;;;0.98;0.40;;;13.40;62.40;;;;;;5007896;28;20059;-71
2022/04/08 09:57:39;;;;;;;5.10;0.50;;;13.50;59.80;;;;;;5007918;28;20041;-71
2022/04/08 10:00:06;;;;;;;1.27;0.22;;;13.50;59.50;;;;;;5012814;28;20037;-72
2022/04/08 10:02:45;;;;;;;3.63;0.52;;;13.50;58.40;;;;;;5014419;28;20925;-71
2022/04/08 10:05:11;;;;;;;2.58;0.40;;;13.70;59.10;;;;;;5013110;28;20029;-73
2022/04/08 10:07:39;;;;;;;3.28;0.60;;;13.80;57.90;;;;;;5013422;28;20160;-71
2022/04/08 10:10:09;;;;;;;1.90;0.40;;;14.00;57.80;;;;;;5015569;28;20029;-71
2022/04/08 10:13:00;;;;;;;1.77;0.43;;;14.00;53.70;;;;;;5007362;28;20359;-70
2022/04/08 10:15:32;;;;;;;1.10;0.38;;;13.90;55.80;;;;;;5001316;28;20030;-72
2022/04/08 10:18:04;;;;;;;1.27;0.30;;;14.10;57.20;;;;;;5018983;28;20053;-72
2022/04/08 10:20:31;;;;;;;1.27;0.60;;;14.20;55.70;;;;;;5010981;28;20025;-73
2022/04/08 10:23:18;;;;;;;1.55;0.60;;;14.30;53.40;;;;;;5016800;28;20539;-72
2022/04/08 10:25:50;;;;;;;1.55;0.30;;;14.50;52.30;;;;;;5010574;28;20018;-72
2022/04/08 10:28:16;;;;;;;1.33;0.32;;;14.60;53.50;;;;;;5010786;28;20115;-72
2022/04/08 10:30:49;;;;;;;2.65;0.70;;;14.90;51.20;;;;;;5012980;28;20072;-72
2022/04/08 10:33:25;;;;;;;1.55;0.47;;;14.90;51.50;;;;;;5013532;28;20029;-72
2022/04/08 10:35:53;;;;;;;4.13;0.80;;;15.10;52.60;;;;;;5006499;28;20516;-72
2022/04/08 10:38:19;;;;;;;2.25;0.40;;;15.30;46.70;;;;;;4997956;28;20068;-71
2022/04/08 10:40:53;;;;;;;2.22;0.50;;;15.30;45.40;;;;;;5002707;28;20459;-72
2022/04/08 10:43:19;;;;;;;1.83;0.95;;;15.30;48.00;;;;;;5006034;28;20037;-72
2022/04/08 10:45:58;;;;;;;2.03;0.30;;;15.40;49.00;;;;;;5008687;28;20029;-72
2022/04/08 10:48:31;;;;;;;1.90;0.45;;;15.50;45.70;;;;;;4996658;28;20091;-72
2022/04/08 10:51:11;;;;;;;7.10;0.60;;;15.50;47.70;;;;;;5001257;28;20034;-73
2022/04/08 10:53:41;;;;;;;0.70;0.30;;;15.60;44.20;;;;;;5012210;28;20561;-73
2022/04/08 10:56:13;;;;;;;1.98;0.30;;;15.50;46.50;;;;;;5015696;28;20048;-74
2022/04/08 10:58:46;;;;;;;1.13;0.55;;;15.60;47.00;;;;;;5011732;28;20030;-73
2022/04/08 11:01:24;;;;;;;1.35;0.68;;;15.80;48.20;;;;;;5009489;28;20160;-73
2022/04/08 11:03:54;;;;;;;0.93;0.30;;;15.80;46.80;;;;;;5010104;28;20033;-73
2022/04/08 11:06:21;;;;;;;1.17;0.30;;;15.80;47.10;;;;;;5009898;28;20041;-74
2022/04/08 11:08:47;;;;;;;1.77;0.47;;;16.00;48.20;;;;;;5013038;28;20662;-74
2022/04/08 11:11:13;;;;;;;1.83;0.40;;;16.10;47.50;;;;;;5013263;28;20040;-74
2022/04/08 11:13:41;;;;;;;6.22;0.40;;;16.20;47.40;;;;;;5014153;28;20185;-74
2022/04/08 11:16:07;;;;;;;1.70;0.30;;;16.30;46.30;;;;;;5017987;28;20035;-73
2022/04/08 11:18:32;;;;;;;2.15;0.43;;;16.10;43.90;;;;;;5016631;28;20049;-73
2022/04/08 11:20:58;;;;;;;2.88;0.70;;;15.90;43.60;;;;;;5023244;28;20048;-73
2022/04/08 11:23:28;;;;;;;2.75;0.47;;;15.80;46.00;;;;;;5018186;28;20479;-72
2022/04/08 11:25:54;;;;;;;2.20;0.50;;;15.90;43.80;;;;;;5016197;28;20037;-73
2022/04/08 11:28:23;;;;;;;1.23;0.40;;;16.00;47.10;;;;;;5016696;28;20029;-74
2022/04/08 11:30:57;;;;;;;2.58;0.50;;;16.10;45.10;;;;;;5014836;28;20034;-73
2022/04/08 11:33:22;;;;;;;4.25;0.45;;;16.20;46.10;;;;;;5011821;28;20534;-73
2022/04/08 11:35:58;;;;;;;2.47;0.40;;;16.20;43.80;;;;;;5018141;28;20049;-73
2022/04/08 11:38:25;;;;;;;1.75;0.40;;;16.00;44.60;;;;;;5014954;28;20048;-73
2022/04/08 11:40:51;;;;;;;1.63;0.60;;;15.80;46.30;;;;;;5017575;28;20033;-73
2022/04/08 11:43:18;;;;;;;1.05;0.50;;;15.80;45.70;;;;;;5016338;28;20033;-73
2022/04/08 11:45:52;;;;;;;3.00;0.70;;;15.90;46.00;;;;;;5014750;28;20208;-72
2022/04/08 11:48:20;;;;;;;1.00;0.43;;;15.80;46.40;;;;;;5015879;28;20108;-71
2022/04/08 11:50:47;;;;;;;2.78;0.63;;;15.80;47.20;;;;;;5022566;28;20040;-72
2022/04/08 11:53:23;;;;;;;0.93;0.50;;;15.90;46.40;;;;;;5015534;28;20061;-72
2022/04/08 11:55:53;;;;;;;1.50;0.40;;;15.90;49.20;;;;;;5019214;28;20037;-72
2022/04/08 11:58:19;;;;;;;1.95;0.40;;;16.10;47.50;;;;;;5018897;28;20038;-72
2022/04/08 12:00:47;;;;;;;8.32;0.68;;;16.20;46.00;;;;;;5018745;28;20030;-73
2022/04/08 12:03:21;;;;;;;1.90;0.52;;;16.10;47.60;;;;;;5015062;28;20077;-73
2022/04/08 12:05:50;;;;;;;1.58;0.30;;;15.90;47.10;;;;;;5014250;28;20033;-73
2022/04/08 12:08:17;;;;;;;3.30;0.50;;;15.90;46.50;;;;;;5018598;28;20465;-72
2022/04/08 12:10:43;;;;;;;1.35;0.30;;;15.90;47.50;;;;;;5019014;28;20061;-72
2022/04/08 12:13:29;;;;;;;0.85;0.20;;;16.00;47.40;;;;;;5014195;28;20060;-73
2022/04/08 12:15:57;;;;;;;2.78;0.50;;;16.00;48.20;;;;;;5014241;28;20515;-72
2022/04/08 12:18:32;;;;;;;1.60;0.22;;;16.00;48.40;;;;;;5018983;28;20056;-72
2022/04/08 12:21:00;;;;;;;1.67;0.52;;;16.10;49.50;;;;;;5013177;28;20520;-73
2022/04/08 12:23:27;;;;;;;3.47;0.50;;;16.10;49.80;;;;;;5020818;28;20477;-72
2022/04/08 12:26:04;;;;;;;2.65;0.40;;;16.10;49.00;;;;;;5016297;28;20136;-73
2022/04/08 12:28:32;;;;;;;3.30;0.45;;;16.00;47.80;;;;;;5010955;28;20489;-73
2022/04/08 12:31:21;;;;;;;2.63;0.50;;;15.90;48.00;;;;;;5014086;28;20057;-73
2022/04/08 12:33:47;;;;;;;4.90;0.75;;;15.80;49.70;;;;;;5014623;28;20026;-72
2022/04/08 12:36:13;;;;;;;1.92;0.35;;;15.80;50.60;;;;;;5012439;28;20084;-73
2022/04/08 12:38:40;;;;;;;1.42;0.68;;;15.90;50.00;;;;;;5009751;28;20038;-73
2022/04/08 12:41:07;;;;;;;4.03;0.30;;;15.90;51.20;;;;;;5018113;28;20108;-73
2022/04/08 12:43:33;;;;;;;1.50;0.50;;;15.90;50.50;;;;;;5016334;28;20084;-73
2022/04/08 12:45:59;;;;;;;3.42;0.55;;;15.90;50.70;;;;;;5021385;28;20435;-73
2022/04/08 12:48:24;;;;;;;1.67;0.50;;;15.90;49.80;;;;;;5011871;28;20134;-73
2022/04/08 12:50:50;;;;;;;3.10;0.70;;;15.70;51.30;;;;;;5016510;28;20123;-73